sensor_id;sensor_type;location;lat;lon;timestamp;pressure;altitude;pressure_sealevel;temperature;humidity
62617;BME280;62539;51.190;6.808;2023-04-10T00:01:31;101917.09;;;20.40;48.13
62617;BME280;62539;51.190;6.808;2023-04-10T00:03:59;101910.97;;;20.38;48.18
62617;BME280;62539;51.190;6.808;2023-04-10T00:06:26;101910.16;;;20.36;48.26
62617;BME280;62539;51.190;6.808;2023-04-10T00:08:52;101911.06;;;20.35;48.34
62617;BME280;62539;51.190;6.808;2023-04-10T00:11:18;101907.59;;;20.33;48.14
62617;BME280;62539;51.190;6.808;2023-04-10T00:13:43;101894.47;;;20.31;48.28
62617;BME280;62539;51.190;6.808;2023-04-10T00:16:09;101892.72;;;20.30;48.20
62617;BME280;62539;51.190;6.808;2023-04-10T00:18:35;101898.03;;;20.29;48.26
62617;BME280;62539;51.190;6.808;2023-04-10T00:21:04;101890.19;;;20.27;48.28
62617;BME280;62539;51.190;6.808;2023-04-10T00:23:30;101890.19;;;20.25;48.28
62617;BME280;62539;51.190;6.808;2023-04-10T00:25:59;101884.09;;;20.23;48.27
62617;BME280;62539;51.190;6.808;2023-04-10T00:28:25;101883.25;;;20.23;48.44
62617;BME280;62539;51.190;6.808;2023-04-10T00:30:51;101880.63;;;20.21;48.37
62617;BME280;62539;51.190;6.808;2023-04-10T00:33:16;101877.16;;;20.19;48.39
62617;BME280;62539;51.190;6.808;2023-04-10T00:35:41;101881.59;;;20.19;48.23
62617;BME280;62539;51.190;6.808;2023-04-10T00:38:07;101878.97;;;20.17;48.16
62617;BME280;62539;51.190;6.808;2023-04-10T00:40:32;101872.88;;;20.15;48.30
62617;BME280;62539;51.190;6.808;2023-04-10T00:42:58;101868.50;;;20.14;48.21
62617;BME280;62539;51.190;6.808;2023-04-10T00:45:24;101862.41;;;20.12;48.24
62617;BME280;62539;51.190;6.808;2023-04-10T00:47:50;101862.41;;;20.12;48.28
62617;BME280;62539;51.190;6.808;2023-04-10T00:53:59;101868.66;;;20.08;48.33
62617;BME280;62539;51.190;6.808;2023-04-10T01:00:06;101861.78;;;20.01;48.26
62617;BME280;62539;51.190;6.808;2023-04-10T01:02:32;101861.84;;;19.99;48.35
62617;BME280;62539;51.190;6.808;2023-04-10T01:04:57;101860.97;;;19.98;48.46
62617;BME280;62539;51.190;6.808;2023-04-10T01:10:35;101847.88;;;19.95;48.58
62617;BME280;62539;51.190;6.808;2023-04-10T01:13:27;101855.81;;;19.94;48.45
62617;BME280;62539;51.190;6.808;2023-04-10T01:16:33;101845.34;;;19.91;48.61
62617;BME280;62539;51.190;6.808;2023-04-10T01:19:24;101847.09;;;19.90;48.72
62617;BME280;62539;51.190;6.808;2023-04-10T01:22:09;101842.75;;;19.89;48.78
62617;BME280;62539;51.190;6.808;2023-04-10T01:25:13;101834.88;;;19.88;48.72
62617;BME280;62539;51.190;6.808;2023-04-10T01:27:51;101832.25;;;19.86;48.87
62617;BME280;62539;51.190;6.808;2023-04-10T01:30:35;101838.41;;;19.85;48.78
62617;BME280;62539;51.190;6.808;2023-04-10T01:33:02;101828.78;;;19.84;48.82
62617;BME280;62539;51.190;6.808;2023-04-10T01:35:35;101825.31;;;19.82;48.88
62617;BME280;62539;51.190;6.808;2023-04-10T01:38:05;101821.84;;;19.80;48.62
62617;BME280;62539;51.190;6.808;2023-04-10T01:40:33;101821.03;;;19.78;48.83
62617;BME280;62539;51.190;6.808;2023-04-10T01:43:05;101819.28;;;19.77;49.02
62617;BME280;62539;51.190;6.808;2023-04-10T01:45:34;101815.81;;;19.76;49.18
62617;BME280;62539;51.190;6.808;2023-04-10T01:48:00;101820.19;;;19.76;49.21
62617;BME280;62539;51.190;6.808;2023-04-10T01:50:27;101809.66;;;19.76;49.23
62617;BME280;62539;51.190;6.808;2023-04-10T01:52:56;101802.66;;;19.75;49.23
62617;BME280;62539;51.190;6.808;2023-04-10T01:55:23;101803.56;;;19.75;49.21
62617;BME280;62539;51.190;6.808;2023-04-10T01:57:50;101803.56;;;19.75;49.17
62617;BME280;62539;51.190;6.808;2023-04-10T02:00:17;101802.66;;;19.75;49.29
62617;BME280;62539;51.190;6.808;2023-04-10T02:02:43;101796.56;;;19.73;49.31
62617;BME280;62539;51.190;6.808;2023-04-10T02:05:09;101799.22;;;19.73;49.41
62617;BME280;62539;51.190;6.808;2023-04-10T02:07:56;101797.47;;;19.72;49.34
62617;BME280;62539;51.190;6.808;2023-04-10T02:10:57;101799.28;;;19.69;49.35
62617;BME280;62539;51.190;6.808;2023-04-10T02:13:37;101799.28;;;19.69;49.38
62617;BME280;62539;51.190;6.808;2023-04-10T02:16:06;101797.53;;;19.68;49.43
62617;BME280;62539;51.190;6.808;2023-04-10T02:18:33;101789.69;;;19.67;49.70
62617;BME280;62539;51.190;6.808;2023-04-10T02:21:01;101784.44;;;19.65;49.51
62617;BME280;62539;51.190;6.808;2023-04-10T02:23:27;101782.69;;;19.66;49.50
62617;BME280;62539;51.190;6.808;2023-04-10T02:25:53;101790.63;;;19.64;49.59
62617;BME280;62539;51.190;6.808;2023-04-10T02:28:21;101794.16;;;19.63;49.59
62617;BME280;62539;51.190;6.808;2023-04-10T02:30:46;101792.41;;;19.62;49.52
62617;BME280;62539;51.190;6.808;2023-04-10T02:33:12;101793.31;;;19.63;49.66
62617;BME280;62539;51.190;6.808;2023-04-10T02:35:37;101801.22;;;19.61;49.62
62617;BME280;62539;51.190;6.808;2023-04-10T02:38:02;101812.63;;;19.62;49.54
62617;BME280;62539;51.190;6.808;2023-04-10T02:40:28;101808.25;;;19.61;49.32
62617;BME280;62539;51.190;6.808;2023-04-10T02:42:53;101795.16;;;19.58;49.50
62617;BME280;62539;51.190;6.808;2023-04-10T02:45:19;101789.03;;;19.57;49.49
62617;BME280;62539;51.190;6.808;2023-04-10T02:47:44;101788.19;;;19.57;49.46
62617;BME280;62539;51.190;6.808;2023-04-10T02:50:09;101787.28;;;19.56;49.53
62617;BME280;62539;51.190;6.808;2023-04-10T02:52:36;101785.56;;;19.55;49.50
62617;BME280;62539;51.190;6.808;2023-04-10T02:55:01;101783.84;;;19.54;49.29
62617;BME280;62539;51.190;6.808;2023-04-10T02:57:26;101788.25;;;19.53;49.52
62617;BME280;62539;51.190;6.808;2023-04-10T02:59:52;101783.91;;;19.51;49.75
62617;BME280;62539;51.190;6.808;2023-04-10T03:02:19;101783.06;;;19.50;49.69
62617;BME280;62539;51.190;6.808;2023-04-10T03:04:44;101776.06;;;19.49;49.63
62617;BME280;62539;51.190;6.808;2023-04-10T03:07:10;101774.31;;;19.48;49.81
62617;BME280;62539;51.190;6.808;2023-04-10T03:09:35;101773.44;;;19.48;49.61
62617;BME280;62539;51.190;6.808;2023-04-10T03:12:00;101759.44;;;19.46;49.64
62617;BME280;62539;51.190;6.808;2023-04-10T03:14:26;101764.72;;;19.46;49.78
62617;BME280;62539;51.190;6.808;2023-04-10T03:16:52;101760.34;;;19.45;49.58
62617;BME280;62539;51.190;6.808;2023-04-10T03:19:18;101750.72;;;19.44;49.73
62617;BME280;62539;51.190;6.808;2023-04-10T03:21:44;101746.38;;;19.43;49.82
62617;BME280;62539;51.190;6.808;2023-04-10T03:24:11;101744.63;;;19.42;49.96
62617;BME280;62539;51.190;6.808;2023-04-10T03:26:36;101745.53;;;19.41;49.77
62617;BME280;62539;51.190;6.808;2023-04-10T03:29:02;101742.06;;;19.38;49.97
62617;BME280;62539;51.190;6.808;2023-04-10T03:31:27;101736.81;;;19.38;49.84
62617;BME280;62539;51.190;6.808;2023-04-10T03:33:53;101741.22;;;19.38;49.59
62617;BME280;62539;51.190;6.808;2023-04-10T03:36:20;101730.72;;;19.36;50.10
62617;BME280;62539;51.190;6.808;2023-04-10T03:38:45;101729.81;;;19.37;50.06
62617;BME280;62539;51.190;6.808;2023-04-10T03:41:10;101721.91;;;19.39;49.98
62617;BME280;62539;51.190;6.808;2023-04-10T03:43:36;101721.78;;;19.44;49.55
62617;BME280;62539;51.190;6.808;2023-04-10T03:46:01;101720.81;;;19.48;49.50
62617;BME280;62539;51.190;6.808;2023-04-10T03:48:27;101726.84;;;19.53;49.45
62617;BME280;62539;51.190;6.808;2023-04-10T03:50:54;101724.06;;;19.59;49.36
62617;BME280;62539;51.190;6.808;2023-04-10T03:53:20;101717.78;;;19.65;49.01
62617;BME280;62539;51.190;6.808;2023-04-10T03:55:45;101713.31;;;19.68;48.78
62617;BME280;62539;51.190;6.808;2023-04-10T03:58:11;101716.69;;;19.74;48.74
62617;BME280;62539;51.190;6.808;2023-04-10T04:00:37;101716.63;;;19.77;48.62
62617;BME280;62539;51.190;6.808;2023-04-10T04:03:03;101714.81;;;19.79;48.45
62617;BME280;62539;51.190;6.808;2023-04-10T04:05:32;101715.63;;;19.81;48.59
62617;BME280;62539;51.190;6.808;2023-04-10T04:07:57;101713.84;;;19.83;48.31
62617;BME280;62539;51.190;6.808;2023-04-10T04:10:23;101715.56;;;19.84;48.31
62617;BME280;62539;51.190;6.808;2023-04-10T04:12:49;101716.38;;;19.86;48.52
62617;BME280;62539;51.190;6.808;2023-04-10T04:15:14;101705.84;;;19.86;48.20
62617;BME280;62539;51.190;6.808;2023-04-10T04:17:40;101711.97;;;19.90;48.42
62617;BME280;62539;51.190;6.808;2023-04-10T04:20:06;101715.41;;;19.92;48.19
62617;BME280;62539;51.190;6.808;2023-04-10T04:22:32;101712.72;;;19.95;48.19
62617;BME280;62539;51.190;6.808;2023-04-10T04:24:57;101715.25;;;19.98;47.98
62617;BME280;62539;51.190;6.808;2023-04-10T04:27:23;101713.44;;;20.00;48.06
62617;BME280;62539;51.190;6.808;2023-04-10T04:29:48;101709.88;;;20.03;48.16
62617;BME280;62539;51.190;6.808;2023-04-10T04:32:14;101703.69;;;20.04;48.21
62617;BME280;62539;51.190;6.808;2023-04-10T04:34:39;101708.06;;;20.05;47.86
62617;BME280;62539;51.190;6.808;2023-04-10T04:37:05;101700.16;;;20.05;47.90
62617;BME280;62539;51.190;6.808;2023-04-10T04:39:31;101696.59;;;20.06;47.93
62617;BME280;62539;51.190;6.808;2023-04-10T04:41:56;101693.97;;;20.06;47.94
62617;BME280;62539;51.190;6.808;2023-04-10T04:48:02;101702.84;;;20.03;48.09
62617;BME280;62539;51.190;6.808;2023-04-10T04:50:28;101702.88;;;20.02;48.06
62617;BME280;62539;51.190;6.808;2023-04-10T04:52:53;101698.50;;;20.01;47.89
62617;BME280;62539;51.190;6.808;2023-04-10T04:55:19;101698.47;;;20.02;47.89
62617;BME280;62539;51.190;6.808;2023-04-10T04:57:44;101701.97;;;20.03;48.04
62617;BME280;62539;51.190;6.808;2023-04-10T05:00:10;101699.25;;;20.06;48.02
62617;BME280;62539;51.190;6.808;2023-04-10T05:02:36;101704.50;;;20.07;48.15
62617;BME280;62539;51.190;6.808;2023-04-10T05:05:01;101707.94;;;20.09;47.91
62617;BME280;62539;51.190;6.808;2023-04-10T05:07:27;101707.00;;;20.12;48.07
62617;BME280;62539;51.190;6.808;2023-04-10T05:09:53;101701.72;;;20.12;47.87
62617;BME280;62539;51.190;6.808;2023-04-10T05:15:47;101695.53;;;20.13;47.74
62617;BME280;62539;51.190;6.808;2023-04-10T05:18:13;101695.53;;;20.15;47.60
62617;BME280;62539;51.190;6.808;2023-04-10T05:20:38;101700.72;;;20.16;47.76
62617;BME280;62539;51.190;6.808;2023-04-10T05:23:04;101705.09;;;20.17;47.78
62617;BME280;62539;51.190;6.808;2023-04-10T05:25:30;101698.03;;;20.19;47.72
62617;BME280;62539;51.190;6.808;2023-04-10T05:27:55;101705.91;;;20.21;47.79
62617;BME280;62539;51.190;6.808;2023-04-10T05:30:21;101705.00;;;20.20;47.83
62617;BME280;62539;51.190;6.808;2023-04-10T05:32:46;101708.47;;;20.22;47.27
62617;BME280;62539;51.190;6.808;2023-04-10T05:35:11;101705.91;;;20.21;47.48
62617;BME280;62539;51.190;6.808;2023-04-10T05:37:37;101711.16;;;20.21;47.31
62617;BME280;62539;51.190;6.808;2023-04-10T05:40:03;101709.38;;;20.21;47.52
62617;BME280;62539;51.190;6.808;2023-04-10T05:42:29;101712.00;;;20.21;47.55
62617;BME280;62539;51.190;6.808;2023-04-10T05:44:54;101707.66;;;20.20;47.46
62617;BME280;62539;51.190;6.808;2023-04-10T05:47:20;101709.38;;;20.21;47.58
62617;BME280;62539;51.190;6.808;2023-04-10T05:49:45;101711.09;;;20.22;47.66
62617;BME280;62539;51.190;6.808;2023-04-10T05:52:10;101704.94;;;20.23;47.28
62617;BME280;62539;51.190;6.808;2023-04-10T05:54:36;101703.19;;;20.24;47.69
62617;BME280;62539;51.190;6.808;2023-04-10T05:57:01;101706.63;;;20.26;47.60
62617;BME280;62539;51.190;6.808;2023-04-10T05:59:27;101696.03;;;20.27;47.46
62617;BME280;62539;51.190;6.808;2023-04-10T06:01:52;101708.31;;;20.29;47.16
62617;BME280;62539;51.190;6.808;2023-04-10T06:04:18;101700.41;;;20.29;47.03
62617;BME280;62539;51.190;6.808;2023-04-10T06:06:45;101695.13;;;20.29;47.12
62617;BME280;62539;51.190;6.808;2023-04-10T06:09:11;101696.91;;;20.28;47.18
62617;BME280;62539;51.190;6.808;2023-04-10T06:11:36;101694.22;;;20.30;47.07
62617;BME280;62539;51.190;6.808;2023-04-10T06:14:01;101688.03;;;20.32;47.17
62617;BME280;62539;51.190;6.808;2023-04-10T06:16:27;101683.59;;;20.33;47.57
62617;BME280;62539;51.190;6.808;2023-04-10T06:18:52;101688.88;;;20.33;47.01
62617;BME280;62539;51.190;6.808;2023-04-10T06:21:18;101686.22;;;20.34;47.22
62617;BME280;62539;51.190;6.808;2023-04-10T06:23:44;101683.53;;;20.36;47.04
62617;BME280;62539;51.190;6.808;2023-04-10T06:26:09;101687.88;;;20.37;47.04
62617;BME280;62539;51.190;6.808;2023-04-10T06:28:36;101688.75;;;20.37;46.67
62617;BME280;62539;51.190;6.808;2023-04-10T06:31:01;101692.25;;;20.38;46.89
62617;BME280;62539;51.190;6.808;2023-04-10T06:33:29;101690.44;;;20.40;46.68
62617;BME280;62539;51.190;6.808;2023-04-10T06:35:55;101687.78;;;20.41;46.92
62617;BME280;62539;51.190;6.808;2023-04-10T06:38:21;101689.50;;;20.42;47.62
62617;BME280;62539;51.190;6.808;2023-04-10T06:40:46;101692.97;;;20.45;47.53
62617;BME280;62539;51.190;6.808;2023-04-10T06:43:12;101680.59;;;20.47;47.86
62617;BME280;62539;51.190;6.808;2023-04-10T06:45:37;101678.72;;;20.50;48.05
62617;BME280;62539;51.190;6.808;2023-04-10T06:48:03;101676.06;;;20.52;47.83
62617;BME280;62539;51.190;6.808;2023-04-10T06:50:29;101680.44;;;20.53;47.60
62617;BME280;62539;51.190;6.808;2023-04-10T06:52:54;101683.00;;;20.54;47.50
62617;BME280;62539;51.190;6.808;2023-04-10T06:55:23;101681.28;;;20.53;47.06
62617;BME280;62539;51.190;6.808;2023-04-10T06:57:50;101686.53;;;20.53;46.96
62617;BME280;62539;51.190;6.808;2023-04-10T07:00:15;101682.19;;;20.52;46.72
62617;BME280;62539;51.190;6.808;2023-04-10T07:02:41;101672.53;;;20.51;46.73
62617;BME280;62539;51.190;6.808;2023-04-10T07:05:06;101668.16;;;20.52;46.54
62617;BME280;62539;51.190;6.808;2023-04-10T07:07:32;101668.16;;;20.52;46.71
62617;BME280;62539;51.190;6.808;2023-04-10T07:09:58;101669.91;;;20.51;46.52
62617;BME280;62539;51.190;6.808;2023-04-10T07:12:23;101670.78;;;20.52;46.48
62617;BME280;62539;51.190;6.808;2023-04-10T07:14:49;101670.78;;;20.52;46.08
62617;BME280;62539;51.190;6.808;2023-04-10T07:17:14;101670.81;;;20.50;45.79
62617;BME280;62539;51.190;6.808;2023-04-10T07:19:40;101657.69;;;20.49;46.31
62617;BME280;62539;51.190;6.808;2023-04-10T07:22:05;101671.72;;;20.49;46.35
62617;BME280;62539;51.190;6.808;2023-04-10T07:24:31;101658.56;;;20.49;46.50
62617;BME280;62539;51.190;6.808;2023-04-10T07:26:56;101656.72;;;20.51;46.09
62617;BME280;62539;51.190;6.808;2023-04-10T07:29:22;101653.19;;;20.52;46.03
62617;BME280;62539;51.190;6.808;2023-04-10T07:31:48;101646.16;;;20.53;46.74
62617;BME280;62539;51.190;6.808;2023-04-10T07:34:13;101640.81;;;20.54;46.33
62617;BME280;62539;51.190;6.808;2023-04-10T07:36:39;101647.81;;;20.55;46.27
62617;BME280;62539;51.190;6.808;2023-04-10T07:39:04;101653.00;;;20.59;46.09
62617;BME280;62539;51.190;6.808;2023-04-10T07:41:30;101644.19;;;20.60;45.94
62617;BME280;62539;51.190;6.808;2023-04-10T07:43:55;101645.91;;;20.61;45.86
62617;BME280;62539;51.190;6.808;2023-04-10T07:46:21;101631.91;;;20.60;45.62
62617;BME280;62539;51.190;6.808;2023-04-10T07:48:46;101627.47;;;20.61;45.40
62617;BME280;62539;51.190;6.808;2023-04-10T07:51:12;101624.81;;;20.61;45.47
62617;BME280;62539;51.190;6.808;2023-04-10T07:53:38;101627.44;;;20.62;45.82
62617;BME280;62539;51.190;6.808;2023-04-10T07:56:04;101625.63;;;20.64;45.51
62617;BME280;62539;51.190;6.808;2023-04-10T07:58:30;101622.91;;;20.66;45.75
62617;BME280;62539;51.190;6.808;2023-04-10T08:00:57;101616.75;;;20.67;45.56
62617;BME280;62539;51.190;6.808;2023-04-10T08:03:22;101620.19;;;20.69;45.72
62617;BME280;62539;51.190;6.808;2023-04-10T08:05:48;101614.81;;;20.72;46.24
62617;BME280;62539;51.190;6.808;2023-04-10T08:08:16;101613.00;;;20.74;46.50
62617;BME280;62539;51.190;6.808;2023-04-10T08:10:42;101615.56;;;20.77;46.17
62617;BME280;62539;51.190;6.808;2023-04-10T08:13:07;101610.22;;;20.80;46.02
62617;BME280;62539;51.190;6.808;2023-04-10T08:15:32;101610.13;;;20.83;46.43
62617;BME280;62539;51.190;6.808;2023-04-10T08:17:58;101595.94;;;20.88;46.81
62617;BME280;62539;51.190;6.808;2023-04-10T08:20:24;101602.09;;;20.88;46.87
62617;BME280;62539;51.190;6.808;2023-04-10T08:22:49;101593.16;;;20.92;46.82
62617;BME280;62539;51.190;6.808;2023-04-10T08:25:15;101594.81;;;20.95;46.81
62617;BME280;62539;51.190;6.808;2023-04-10T08:27:40;101585.09;;;20.97;46.79
62617;BME280;62539;51.190;6.808;2023-04-10T08:30:06;101584.16;;;20.99;46.99
62617;BME280;62539;51.190;6.808;2023-04-10T08:32:32;101581.44;;;21.01;47.46
62617;BME280;62539;51.190;6.808;2023-04-10T08:34:57;101576.97;;;21.03;47.20
62617;BME280;62539;51.190;6.808;2023-04-10T08:37:24;101574.25;;;21.06;47.09
62617;BME280;62539;51.190;6.808;2023-04-10T08:39:53;101572.41;;;21.08;47.15
62617;BME280;62539;51.190;6.808;2023-04-10T08:42:18;101566.22;;;21.09;47.37
62617;BME280;62539;51.190;6.808;2023-04-10T08:44:44;101559.19;;;21.10;47.42
62617;BME280;62539;51.190;6.808;2023-04-10T08:47:10;101553.84;;;21.11;47.52
62617;BME280;62539;51.190;6.808;2023-04-10T08:49:53;101552.09;;;21.12;47.18
62617;BME280;62539;51.190;6.808;2023-04-10T08:52:23;101548.47;;;21.14;47.24
62617;BME280;62539;51.190;6.808;2023-04-10T08:54:53;101537.88;;;21.16;46.86
62617;BME280;62539;51.190;6.808;2023-04-10T08:57:20;101535.19;;;21.18;46.60
62617;BME280;62539;51.190;6.808;2023-04-10T08:59:47;101527.22;;;21.19;47.18
62617;BME280;62539;51.190;6.808;2023-04-10T09:02:14;101532.44;;;21.21;47.21
62617;BME280;62539;51.190;6.808;2023-04-10T09:04:51;101522.72;;;21.21;46.35
62617;BME280;62539;51.190;6.808;2023-04-10T09:07:19;101525.25;;;21.24;46.69
62617;BME280;62539;51.190;6.808;2023-04-10T09:09:44;101525.13;;;21.29;47.12
62617;BME280;62539;51.190;6.808;2023-04-10T09:12:11;101527.56;;;21.35;46.74
62617;BME280;62539;51.190;6.808;2023-04-10T09:14:39;101534.34;;;21.42;47.14
62617;BME280;62539;51.190;6.808;2023-04-10T09:17:16;101541.16;;;21.48;46.25
62617;BME280;62539;51.190;6.808;2023-04-10T09:19:45;101530.47;;;21.53;46.04
62617;BME280;62539;51.190;6.808;2023-04-10T09:22:16;101522.44;;;21.56;45.47
62617;BME280;62539;51.190;6.808;2023-04-10T09:24:44;101528.41;;;21.61;45.66
62617;BME280;62539;51.190;6.808;2023-04-10T09:27:30;101535.34;;;21.65;45.73
62617;BME280;62539;51.190;6.808;2023-04-10T09:29:59;101523.75;;;21.69;45.96
62617;BME280;62539;51.190;6.808;2023-04-10T09:32:36;101523.66;;;21.72;45.86
62617;BME280;62539;51.190;6.808;2023-04-10T09:35:05;101515.53;;;21.77;46.00
62617;BME280;62539;51.190;6.808;2023-04-10T09:37:34;101532.19;;;21.79;44.81
62617;BME280;62539;51.190;6.808;2023-04-10T09:40:01;101527.69;;;21.83;44.96
62617;BME280;62539;51.190;6.808;2023-04-10T09:42:32;101516.09;;;21.87;44.61
62617;BME280;62539;51.190;6.808;2023-04-10T09:44:59;101504.47;;;21.91;45.21
62617;BME280;62539;51.190;6.808;2023-04-10T09:47:26;101494.66;;;21.95;44.60
62617;BME280;62539;51.190;6.808;2023-04-10T09:52:27;101505.88;;;22.01;45.44
62617;BME280;62539;51.190;6.808;2023-04-10T09:54:59;101502.19;;;22.06;45.79
62617;BME280;62539;51.190;6.808;2023-04-10T09:57:28;101498.56;;;22.08;45.82
62617;BME280;62539;51.190;6.808;2023-04-10T09:59:56;101495.78;;;22.11;46.06
62617;BME280;62539;51.190;6.808;2023-04-10T10:02:24;101492.13;;;22.15;46.42
62617;BME280;62539;51.190;6.808;2023-04-10T10:04:53;101485.88;;;22.18;46.34
62617;BME280;62539;51.190;6.808;2023-04-10T10:07:21;101483.91;;;22.23;45.34
62617;BME280;62539;51.190;6.808;2023-04-10T10:09:50;101483.66;;;22.29;45.70
62617;BME280;62539;51.190;6.808;2023-04-10T10:12:35;101482.66;;;22.32;45.68
62617;BME280;62539;51.190;6.808;2023-04-10T10:15:13;101483.34;;;22.37;45.47
62617;BME280;62539;51.190;6.808;2023-04-10T10:17:58;101470.09;;;22.39;45.45
62617;BME280;62539;51.190;6.808;2023-04-10T10:20:27;101462.16;;;22.39;42.71
62617;BME280;62539;51.190;6.808;2023-04-10T10:22:57;101454.16;;;22.40;40.96
62617;BME280;62539;51.190;6.808;2023-04-10T10:25:26;101449.75;;;22.41;39.89
62617;BME280;62539;51.190;6.808;2023-04-10T10:27:53;101447.81;;;22.46;39.06
62617;BME280;62539;51.190;6.808;2023-04-10T10:30:20;101446.78;;;22.49;38.00
62617;BME280;62539;51.190;6.808;2023-04-10T10:32:47;101439.66;;;22.51;37.63
62617;BME280;62539;51.190;6.808;2023-04-10T10:35:15;101441.34;;;22.53;38.13
62617;BME280;62539;51.190;6.808;2023-04-10T10:37:42;101430.69;;;22.55;38.54
62617;BME280;62539;51.190;6.808;2023-04-10T10:40:23;101405.97;;;22.56;38.61
62617;BME280;62539;51.190;6.808;2023-04-10T10:43:09;101408.56;;;22.57;37.31
62617;BME280;62539;51.190;6.808;2023-04-10T10:46:20;101394.41;;;22.58;37.43
62617;BME280;62539;51.190;6.808;2023-04-10T10:48:57;101375.66;;;22.65;38.11
62617;BME280;62539;51.190;6.808;2023-04-10T10:51:41;101374.59;;;22.69;38.37
62617;BME280;62539;51.190;6.808;2023-04-10T10:54:27;101375.31;;;22.72;38.39
62617;BME280;62539;51.190;6.808;2023-04-10T10:56:53;101371.56;;;22.78;38.93
62617;BME280;62539;51.190;6.808;2023-04-10T11:02:18;101348.47;;;22.82;38.83
62617;BME280;62539;51.190;6.808;2023-04-10T11:04:45;101349.34;;;22.82;38.12
62617;BME280;62539;51.190;6.808;2023-04-10T11:07:13;101348.47;;;22.82;38.33
62617;BME280;62539;51.190;6.808;2023-04-10T11:09:47;101351.06;;;22.83;38.34
62617;BME280;62539;51.190;6.808;2023-04-10T11:12:18;101338.63;;;22.85;38.44
62617;BME280;62539;51.190;6.808;2023-04-10T11:15:03;101340.34;;;22.86;38.62
62617;BME280;62539;51.190;6.808;2023-04-10T11:17:51;101332.25;;;22.89;38.54
62617;BME280;62539;51.190;6.808;2023-04-10T11:20:19;101325.91;;;22.94;38.73
62617;BME280;62539;51.190;6.808;2023-04-10T11:23:11;101328.59;;;22.92;38.92
62617;BME280;62539;51.190;6.808;2023-04-10T11:25:51;101328.56;;;22.94;38.71
62617;BME280;62539;51.190;6.808;2023-04-10T11:28:37;101321.53;;;22.93;39.03
62617;BME280;62539;51.190;6.808;2023-04-10T11:31:16;101318.91;;;22.93;38.92
62617;BME280;62539;51.190;6.808;2023-04-10T11:33:45;101307.44;;;22.92;39.31
62617;BME280;62539;51.190;6.808;2023-04-10T11:36:15;101303.16;;;22.89;39.29
62617;BME280;62539;51.190;6.808;2023-04-10T11:38:53;101305.03;;;22.87;38.70
62617;BME280;62539;51.190;6.808;2023-04-10T11:41:20;101302.44;;;22.86;38.78
62617;BME280;62539;51.190;6.808;2023-04-10T11:43:58;101288.50;;;22.82;38.66
62617;BME280;62539;51.190;6.808;2023-04-10T11:46:25;101290.25;;;22.82;38.93
62617;BME280;62539;51.190;6.808;2023-04-10T11:48:52;101283.34;;;22.79;38.82
62617;BME280;62539;51.190;6.808;2023-04-10T11:51:23;101287.84;;;22.77;39.04
62617;BME280;62539;51.190;6.808;2023-04-10T11:54:09;101272.09;;;22.74;39.09
62617;BME280;62539;51.190;6.808;2023-04-10T11:56:37;101284.41;;;22.75;38.98
62617;BME280;62539;51.190;6.808;2023-04-10T11:59:04;101276.53;;;22.73;39.25
62617;BME280;62539;51.190;6.808;2023-04-10T12:01:36;101281.81;;;22.73;38.95
62617;BME280;62539;51.190;6.808;2023-04-10T12:04:02;101263.28;;;22.73;39.16
62617;BME280;62539;51.190;6.808;2023-04-10T12:06:27;101257.97;;;22.75;39.38
62617;BME280;62539;51.190;6.808;2023-04-10T12:08:54;101265.94;;;22.73;39.50
62617;BME280;62539;51.190;6.808;2023-04-10T12:11:21;101259.81;;;22.73;39.67
62617;BME280;62539;51.190;6.808;2023-04-10T12:13:52;101256.38;;;22.71;39.79
62617;BME280;62539;51.190;6.808;2023-04-10T12:16:18;101241.63;;;22.65;39.96
62617;BME280;62539;51.190;6.808;2023-04-10T12:18:44;101242.50;;;22.66;40.48
62617;BME280;62539;51.190;6.808;2023-04-10T12:21:10;101240.00;;;22.63;40.47
62617;BME280;62539;51.190;6.808;2023-04-10T12:23:37;101246.22;;;22.61;40.53
62617;BME280;62539;51.190;6.808;2023-04-10T12:26:20;101240.91;;;22.61;40.37
62617;BME280;62539;51.190;6.808;2023-04-10T12:28:52;101239.91;;;22.64;40.59
62617;BME280;62539;51.190;6.808;2023-04-10T12:31:29;101231.00;;;22.67;40.66
62617;BME280;62539;51.190;6.808;2023-04-10T12:33:56;101228.13;;;22.71;40.52
62617;BME280;62539;51.190;6.808;2023-04-10T12:36:29;101219.22;;;22.74;40.68
62617;BME280;62539;51.190;6.808;2023-04-10T12:38:57;101213.66;;;22.80;40.51
62617;BME280;62539;51.190;6.808;2023-04-10T12:41:26;101208.00;;;22.88;40.21
62617;BME280;62539;51.190;6.808;2023-04-10T12:44:12;101204.91;;;22.97;40.49
62617;BME280;62539;51.190;6.808;2023-04-10T12:46:39;101200.84;;;23.09;40.25
62617;BME280;62539;51.190;6.808;2023-04-10T12:49:15;101195.28;;;23.15;40.05
62617;BME280;62539;51.190;6.808;2023-04-10T12:51:50;101186.25;;;23.19;40.46
62617;BME280;62539;51.190;6.808;2023-04-10T12:54:33;101186.09;;;23.23;40.35
62617;BME280;62539;51.190;6.808;2023-04-10T12:57:01;101185.06;;;23.27;40.51
62617;BME280;62539;51.190;6.808;2023-04-10T12:59:28;101175.31;;;23.27;40.30
62617;BME280;62539;51.190;6.808;2023-04-10T13:01:55;101170.75;;;23.31;40.41
62617;BME280;62539;51.190;6.808;2023-04-10T13:04:20;101168.09;;;23.31;40.63
62617;BME280;62539;51.190;6.808;2023-04-10T13:06:47;101159.38;;;23.29;40.48
62617;BME280;62539;51.190;6.808;2023-04-10T13:09:13;101167.47;;;23.26;40.59
62617;BME280;62539;51.190;6.808;2023-04-10T13:11:40;101160.72;;;23.18;40.91
62617;BME280;62539;51.190;6.808;2023-04-10T13:14:06;101159.16;;;23.14;40.88
62617;BME280;62539;51.190;6.808;2023-04-10T13:16:33;101168.16;;;23.10;41.05
62617;BME280;62539;51.190;6.808;2023-04-10T13:18:59;101155.94;;;23.08;40.93
62617;BME280;62539;51.190;6.808;2023-04-10T13:21:24;101147.19;;;23.05;40.71